sensor_id;sensor_type;location;lat;lon;timestamp;pressure;altitude;pressure_sealevel;temperature;humidity
12969;BME280;6549;53.128;8.182;2024-02-04T00:00:46;101719.22;;;7.69;100.00
12969;BME280;6549;53.128;8.182;2024-02-04T00:03:47;101713.38;;;7.71;100.00
12969;BME280;6549;53.128;8.182;2024-02-04T00:06:47;101714.56;;;7.70;100.00
12969;BME280;6549;53.128;8.182;2024-02-04T00:09:47;101696.97;;;7.71;100.00
12969;BME280;6549;53.128;8.182;2024-02-04T00:12:47;101702.69;;;7.65;100.00
12969;BME280;6549;53.128;8.182;2024-02-04T00:15:48;101701.09;;;7.64;100.00
12969;BME280;6549;53.128;8.182;2024-02-04T00:18:49;101696.53;;;7.56;100.00
12969;BME280;6549;53.128;8.182;2024-02-04T00:21:49;101706.47;;;7.61;100.00
12969;BME280;6549;53.128;8.182;2024-02-04T00:24:49;101706.91;;;7.51;100.00
12969;BME280;6549;53.128;8.182;2024-02-04T00:27:50;101695.28;;;7.54;100.00
12969;BME280;6549;53.128;8.182;2024-02-04T00:30:50;101685.34;;;7.49;100.00
12969;BME280;6549;53.128;8.182;2024-02-04T00:33:52;101692.88;;;7.52;100.00
12969;BME280;6549;53.128;8.182;2024-02-04T00:36:53;101683.63;;;7.57;100.00
12969;BME280;6549;53.128;8.182;2024-02-04T00:39:53;101685.72;;;7.48;100.00
12969;BME280;6549;53.128;8.182;2024-02-04T00:42:53;101692.66;;;7.45;100.00
12969;BME280;6549;53.128;8.182;2024-02-04T00:45:54;101692.22;;;7.43;100.00
12969;BME280;6549;53.128;8.182;2024-02-04T00:48:56;101692.06;;;7.40;100.00
12969;BME280;6549;53.128;8.182;2024-02-04T00:51:57;101691.06;;;7.44;100.00
12969;BME280;6549;53.128;8.182;2024-02-04T00:54:57;101692.06;;;7.40;100.00
12969;BME280;6549;53.128;8.182;2024-02-04T00:57:57;101689.13;;;7.45;100.00
12969;BME280;6549;53.128;8.182;2024-02-04T01:01:00;101687.19;;;7.33;100.00
12969;BME280;6549;53.128;8.182;2024-02-04T01:04:00;101688.63;;;7.18;100.00
12969;BME280;6549;53.128;8.182;2024-02-04T01:07:01;101683.28;;;7.22;100.00
12969;BME280;6549;53.128;8.182;2024-02-04T01:10:01;101678.50;;;7.31;100.00
12969;BME280;6549;53.128;8.182;2024-02-04T01:13:02;101687.63;;;7.35;100.00
12969;BME280;6549;53.128;8.182;2024-02-04T01:16:03;101689.91;;;7.33;100.00
12969;BME280;6549;53.128;8.182;2024-02-04T01:19:03;101687.28;;;7.37;100.00
12969;BME280;6549;53.128;8.182;2024-02-04T01:22:03;101702.00;;;7.32;100.00
12969;BME280;6549;53.128;8.182;2024-02-04T01:25:06;101697.44;;;7.36;100.00
12969;BME280;6549;53.128;8.182;2024-02-04T01:28:06;101693.09;;;7.35;100.00
12969;BME280;6549;53.128;8.182;2024-02-04T01:31:06;101704.38;;;7.34;100.00
12969;BME280;6549;53.128;8.182;2024-02-04T01:34:07;101691.28;;;7.27;100.00
12969;BME280;6549;53.128;8.182;2024-02-04T01:37:07;101686.81;;;7.35;100.00
12969;BME280;6549;53.128;8.182;2024-02-04T01:40:08;101680.34;;;7.27;100.00
12969;BME280;6549;53.128;8.182;2024-02-04T01:43:08;101677.03;;;7.21;100.00
12969;BME280;6549;53.128;8.182;2024-02-04T01:46:10;101665.41;;;7.25;100.00
12969;BME280;6549;53.128;8.182;2024-02-04T01:49:11;101656.84;;;7.26;100.00
12969;BME280;6549;53.128;8.182;2024-02-04T01:52:12;101651.75;;;7.25;100.00
12969;BME280;6549;53.128;8.182;2024-02-04T01:55:12;101655.28;;;7.25;100.00
12969;BME280;6549;53.128;8.182;2024-02-04T01:58:13;101650.03;;;7.08;100.00
12969;BME280;6549;53.128;8.182;2024-02-04T02:01:14;101648.31;;;7.15;100.00
12969;BME280;6549;53.128;8.182;2024-02-04T02:04:14;101651.19;;;7.19;100.00
12969;BME280;6549;53.128;8.182;2024-02-04T02:07:14;101645.13;;;7.01;100.00
12969;BME280;6549;53.128;8.182;2024-02-04T02:10:20;101652.19;;;7.02;100.00
12969;BME280;6549;53.128;8.182;2024-02-04T02:13:23;101644.69;;;7.11;100.00
12969;BME280;6549;53.128;8.182;2024-02-04T02:16:26;101637.72;;;7.02;100.00
12969;BME280;6549;53.128;8.182;2024-02-04T02:19:56;101644.53;;;6.96;100.00
12969;BME280;6549;53.128;8.182;2024-02-04T02:23:07;101641.13;;;6.99;100.00
12969;BME280;6549;53.128;8.182;2024-02-04T02:26:07;101643.88;;;6.99;100.00
12969;BME280;6549;53.128;8.182;2024-02-04T02:29:09;101645.22;;;6.93;100.00
12969;BME280;6549;53.128;8.182;2024-02-04T02:32:09;101642.25;;;6.86;100.00
12969;BME280;6549;53.128;8.182;2024-02-04T02:35:12;101634.97;;;6.90;100.00
12969;BME280;6549;53.128;8.182;2024-02-04T02:38:26;101626.53;;;6.83;100.00
12969;BME280;6549;53.128;8.182;2024-02-04T02:41:29;101617.19;;;6.84;100.00
12969;BME280;6549;53.128;8.182;2024-02-04T02:44:32;101622.53;;;6.80;100.00
12969;BME280;6549;53.128;8.182;2024-02-04T02:47:34;101615.09;;;6.68;100.00
12969;BME280;6549;53.128;8.182;2024-02-04T02:50:36;101605.91;;;6.73;100.00
12969;BME280;6549;53.128;8.182;2024-02-04T02:53:36;101603.53;;;6.71;100.00
12969;BME280;6549;53.128;8.182;2024-02-04T02:56:36;101608.19;;;6.71;100.00
12969;BME280;6549;53.128;8.182;2024-02-04T02:59:37;101601.00;;;6.66;100.00
12969;BME280;6549;53.128;8.182;2024-02-04T03:02:37;101596.44;;;6.58;100.00
12969;BME280;6549;53.128;8.182;2024-02-04T03:05:37;101608.28;;;6.62;100.00
12969;BME280;6549;53.128;8.182;2024-02-04T03:08:38;101612.16;;;6.61;100.00
12969;BME280;6549;53.128;8.182;2024-02-04T03:11:38;101604.84;;;6.53;100.00
12969;BME280;6549;53.128;8.182;2024-02-04T03:14:38;101605.97;;;6.52;100.00
12969;BME280;6549;53.128;8.182;2024-02-04T03:17:39;101607.69;;;6.57;100.00
12969;BME280;6549;53.128;8.182;2024-02-04T03:20:39;101601.00;;;6.54;100.00
12969;BME280;6549;53.128;8.182;2024-02-04T03:23:40;101601.19;;;6.49;100.00
12969;BME280;6549;53.128;8.182;2024-02-04T03:26:41;101604.81;;;6.41;100.00
12969;BME280;6549;53.128;8.182;2024-02-04T03:29:41;101608.00;;;6.43;100.00
12969;BME280;6549;53.128;8.182;2024-02-04T03:32:41;101614.56;;;6.42;100.00
12969;BME280;6549;53.128;8.182;2024-02-04T03:35:42;101606.28;;;6.39;100.00
12969;BME280;6549;53.128;8.182;2024-02-04T03:38:42;101602.28;;;6.36;100.00
12969;BME280;6549;53.128;8.182;2024-02-04T03:41:42;101597.28;;;6.38;100.00
12969;BME280;6549;53.128;8.182;2024-02-04T03:44:43;101600.94;;;6.42;100.00
12969;BME280;6549;53.128;8.182;2024-02-04T03:47:43;101599.81;;;6.43;100.00
12969;BME280;6549;53.128;8.182;2024-02-04T03:50:43;101617.28;;;6.30;100.00
12969;BME280;6549;53.128;8.182;2024-02-04T03:53:44;101615.03;;;6.32;100.00
12969;BME280;6549;53.128;8.182;2024-02-04T03:56:45;101612.63;;;6.30;100.00
12969;BME280;6549;53.128;8.182;2024-02-04T03:59:45;101616.38;;;6.38;100.00
12969;BME280;6549;53.128;8.182;2024-02-04T04:02:48;101620.81;;;6.30;100.00
12969;BME280;6549;53.128;8.182;2024-02-04T04:05:49;101617.06;;;6.35;100.00
12969;BME280;6549;53.128;8.182;2024-02-04T04:08:49;101597.47;;;6.33;100.00
12969;BME280;6549;53.128;8.182;2024-02-04T04:11:50;101599.44;;;6.32;100.00
12969;BME280;6549;53.128;8.182;2024-02-04T04:14:50;101590.19;;;6.25;100.00
12969;BME280;6549;53.128;8.182;2024-02-04T04:17:51;101607.25;;;6.22;100.00
12969;BME280;6549;53.128;8.182;2024-02-04T04:20:51;101606.56;;;6.25;100.00
12969;BME280;6549;53.128;8.182;2024-02-04T04:23:51;101604.19;;;6.23;100.00
12969;BME280;6549;53.128;8.182;2024-02-04T04:26:51;101603.91;;;6.16;100.00
12969;BME280;6549;53.128;8.182;2024-02-04T04:29:52;101617.47;;;6.25;100.00
12969;BME280;6549;53.128;8.182;2024-02-04T04:32:52;101615.44;;;6.22;100.00
12969;BME280;6549;53.128;8.182;2024-02-04T04:35:52;101607.91;;;6.19;100.00
12969;BME280;6549;53.128;8.182;2024-02-04T04:38:53;101608.25;;;6.17;100.00
12969;BME280;6549;53.128;8.182;2024-02-04T04:41:53;101604.84;;;6.20;100.00
12969;BME280;6549;53.128;8.182;2024-02-04T04:44:53;101602.47;;;6.19;100.00
12969;BME280;6549;53.128;8.182;2024-02-04T04:47:54;101597.00;;;6.19;100.00
12969;BME280;6549;53.128;8.182;2024-02-04T04:50:54;101608.03;;;6.22;100.00
12969;BME280;6549;53.128;8.182;2024-02-04T04:53:54;101603.91;;;6.16;100.00
12969;BME280;6549;53.128;8.182;2024-02-04T04:56:55;101577.81;;;6.07;100.00
12969;BME280;6549;53.128;8.182;2024-02-04T04:59:55;101587.75;;;6.11;100.00
12969;BME280;6549;53.128;8.182;2024-02-04T05:02:55;101594.81;;;6.12;100.00
12969;BME280;6549;53.128;8.182;2024-02-04T05:05:56;101592.66;;;6.18;100.00
12969;BME280;6549;53.128;8.182;2024-02-04T05:08:56;101586.09;;;6.19;100.00
12969;BME280;6549;53.128;8.182;2024-02-04T05:11:56;101584.47;;;6.18;100.00
12969;BME280;6549;53.128;8.182;2024-02-04T05:14:57;101591.88;;;6.17;100.00
12969;BME280;6549;53.128;8.182;2024-02-04T05:17:57;101568.56;;;6.20;100.00
12969;BME280;6549;53.128;8.182;2024-02-04T05:20:57;101573.00;;;6.24;100.00
12969;BME280;6549;53.128;8.182;2024-02-04T05:23:58;101571.06;;;6.25;100.00
12969;BME280;6549;53.128;8.182;2024-02-04T05:26:58;101570.06;;;6.29;100.00
12969;BME280;6549;53.128;8.182;2024-02-04T05:29:59;101570.50;;;6.19;100.00
12969;BME280;6549;53.128;8.182;2024-02-04T05:32:59;101547.66;;;6.24;100.00
12969;BME280;6549;53.128;8.182;2024-02-04T05:36:00;101546.41;;;6.21;100.00
12969;BME280;6549;53.128;8.182;2024-02-04T05:39:14;101542.53;;;6.22;100.00
12969;BME280;6549;53.128;8.182;2024-02-04T05:42:15;101543.22;;;6.19;100.00
12969;BME280;6549;53.128;8.182;2024-02-04T05:45:15;101551.84;;;6.21;100.00
12969;BME280;6549;53.128;8.182;2024-02-04T05:48:15;101561.56;;;6.31;100.00
12969;BME280;6549;53.128;8.182;2024-02-04T05:51:16;101554.50;;;6.30;100.00
12969;BME280;6549;53.128;8.182;2024-02-04T05:54:16;101531.28;;;6.24;100.00
12969;BME280;6549;53.128;8.182;2024-02-04T05:57:16;101536.28;;;6.22;100.00
12969;BME280;6549;53.128;8.182;2024-02-04T06:00:17;101544.78;;;6.20;100.00
12969;BME280;6549;53.128;8.182;2024-02-04T06:03:18;101547.78;;;6.27;100.00
12969;BME280;6549;53.128;8.182;2024-02-04T06:06:18;101540.72;;;6.26;100.00
12969;BME280;6549;53.128;8.182;2024-02-04T06:09:21;101532.88;;;6.25;100.00
12969;BME280;6549;53.128;8.182;2024-02-04T06:12:22;101524.69;;;6.25;100.00
12969;BME280;6549;53.128;8.182;2024-02-04T06:15:22;101517.88;;;6.31;100.00
12969;BME280;6549;53.128;8.182;2024-02-04T06:18:22;101510.59;;;6.23;100.00
12969;BME280;6549;53.128;8.182;2024-02-04T06:21:22;101525.38;;;6.34;100.00
12969;BME280;6549;53.128;8.182;2024-02-04T06:24:23;101513.09;;;6.28;100.00
12969;BME280;6549;53.128;8.182;2024-02-04T06:27:23;101517.88;;;6.31;100.00
12969;BME280;6549;53.128;8.182;2024-02-04T06:30:23;101509.47;;;6.36;100.00
12969;BME280;6549;53.128;8.182;2024-02-04T06:33:24;101514.03;;;6.32;100.00
12969;BME280;6549;53.128;8.182;2024-02-04T06:36:24;101519.69;;;6.27;100.00
12969;BME280;6549;53.128;8.182;2024-02-04T06:39:25;101524.94;;;6.32;100.00
12969;BME280;6549;53.128;8.182;2024-02-04T06:42:25;101509.38;;;6.32;100.00
12969;BME280;6549;53.128;8.182;2024-02-04T06:45:26;101504.81;;;6.37;100.00
12969;BME280;6549;53.128;8.182;2024-02-04T06:48:26;101526.88;;;6.44;100.00
12969;BME280;6549;53.128;8.182;2024-02-04T06:51:27;101516.66;;;6.41;100.00
12969;BME280;6549;53.128;8.182;2024-02-04T06:54:27;101509.72;;;6.43;100.00
12969;BME280;6549;53.128;8.182;2024-02-04T06:57:27;101513.56;;;6.42;100.00
12969;BME280;6549;53.128;8.182;2024-02-04T07:00:28;101519.94;;;6.46;100.00
12969;BME280;6549;53.128;8.182;2024-02-04T07:03:28;101507.88;;;6.47;100.00
12969;BME280;6549;53.128;8.182;2024-02-04T07:06:29;101506.06;;;6.39;100.00
12969;BME280;6549;53.128;8.182;2024-02-04T07:09:29;101503.81;;;6.41;100.00
12969;BME280;6549;53.128;8.182;2024-02-04T07:12:30;101508.09;;;6.42;100.00
12969;BME280;6549;53.128;8.182;2024-02-04T07:15:30;101488.78;;;6.47;100.00
12969;BME280;6549;53.128;8.182;2024-02-04T07:18:30;101488.66;;;6.44;100.00
12969;BME280;6549;53.128;8.182;2024-02-04T07:21:31;101490.25;;;6.45;100.00
12969;BME280;6549;53.128;8.182;2024-02-04T07:24:31;101483.44;;;6.51;100.00
12969;BME280;6549;53.128;8.182;2024-02-04T07:27:32;101462.97;;;6.45;100.00
12969;BME280;6549;53.128;8.182;2024-02-04T07:30:32;101488.78;;;6.47;100.00
12969;BME280;6549;53.128;8.182;2024-02-04T07:33:32;101465.34;;;6.46;100.00
12969;BME280;6549;53.128;8.182;2024-02-04T07:36:33;101479.22;;;6.41;100.00
12969;BME280;6549;53.128;8.182;2024-02-04T07:39:33;101462.59;;;6.46;100.00
12969;BME280;6549;53.128;8.182;2024-02-04T07:42:33;101468.53;;;6.48;100.00
12969;BME280;6549;53.128;8.182;2024-02-04T07:45:34;101473.09;;;6.44;100.00
12969;BME280;6549;53.128;8.182;2024-02-04T07:48:35;101448.28;;;6.49;100.00
12969;BME280;6549;53.128;8.182;2024-02-04T07:51:35;101466.72;;;6.52;100.00
12969;BME280;6549;53.128;8.182;2024-02-04T07:54:36;101467.19;;;6.54;100.00
12969;BME280;6549;53.128;8.182;2024-02-04T07:57:36;101462.38;;;6.51;100.00
12969;BME280;6549;53.128;8.182;2024-02-04T08:00:36;101465.13;;;6.51;100.00
12969;BME280;6549;53.128;8.182;2024-02-04T08:03:37;101470.25;;;6.53;100.00
12969;BME280;6549;53.128;8.182;2024-02-04T08:06:37;101479.03;;;6.58;100.00
12969;BME280;6549;53.128;8.182;2024-02-04T08:09:38;101495.50;;;6.62;100.00
12969;BME280;6549;53.128;8.182;2024-02-04T08:12:38;101487.66;;;6.60;100.00
12969;BME280;6549;53.128;8.182;2024-02-04T08:15:38;101499.50;;;6.64;100.00
12969;BME280;6549;53.128;8.182;2024-02-04T08:18:39;101489.38;;;6.65;100.00
12969;BME280;6549;53.128;8.182;2024-02-04T08:21:40;101486.41;;;6.70;100.00
12969;BME280;6549;53.128;8.182;2024-02-04T08:24:40;101486.75;;;6.68;100.00
12969;BME280;6549;53.128;8.182;2024-02-04T08:27:41;101497.22;;;6.78;100.00
12969;BME280;6549;53.128;8.182;2024-02-04T08:30:41;101481.53;;;6.75;100.00
12969;BME280;6549;53.128;8.182;2024-02-04T08:33:41;101484.34;;;6.79;100.00
12969;BME280;6549;53.128;8.182;2024-02-04T08:36:42;101466.63;;;6.85;100.00
12969;BME280;6549;53.128;8.182;2024-02-04T08:39:42;101471.16;;;6.81;100.00
12969;BME280;6549;53.128;8.182;2024-02-04T08:42:43;101474.66;;;6.82;100.00
12969;BME280;6549;53.128;8.182;2024-02-04T08:45:43;101481.28;;;6.93;100.00
12969;BME280;6549;53.128;8.182;2024-02-04T08:48:43;101487.22;;;6.95;100.00
12969;BME280;6549;53.128;8.182;2024-02-04T08:51:44;101488.78;;;6.96;100.00
12969;BME280;6549;53.128;8.182;2024-02-04T08:54:44;101493.13;;;6.97;100.00
12969;BME280;6549;53.128;8.182;2024-02-04T08:57:44;101485.13;;;7.04;100.00
12969;BME280;6549;53.128;8.182;2024-02-04T09:00:45;101489.03;;;7.03;100.00
12969;BME280;6549;53.128;8.182;2024-02-04T09:03:45;101486.72;;;7.05;100.00
12969;BME280;6549;53.128;8.182;2024-02-04T09:06:45;101482.16;;;7.09;100.00
12969;BME280;6549;53.128;8.182;2024-02-04T09:09:46;101468.63;;;7.12;100.00
12969;BME280;6549;53.128;8.182;2024-02-04T09:12:46;101486.25;;;7.15;100.00
12969;BME280;6549;53.128;8.182;2024-02-04T09:15:46;101487.16;;;7.19;100.00
12969;BME280;6549;53.128;8.182;2024-02-04T09:18:48;101477.13;;;7.23;100.00
12969;BME280;6549;53.128;8.182;2024-02-04T09:21:48;101484.41;;;7.31;100.00
12969;BME280;6549;53.128;8.182;2024-02-04T09:24:48;101493.50;;;7.35;100.00
12969;BME280;6549;53.128;8.182;2024-02-04T09:27:49;101479.16;;;7.26;100.00
12969;BME280;6549;53.128;8.182;2024-02-04T09:30:49;101497.63;;;7.29;100.00
12969;BME280;6549;53.128;8.182;2024-02-04T09:33:49;101493.19;;;7.25;100.00
12969;BME280;6549;53.128;8.182;2024-02-04T09:36:50;101483.94;;;7.41;100.00
12969;BME280;6549;53.128;8.182;2024-02-04T09:39:53;101476.19;;;7.43;100.00
12969;BME280;6549;53.128;8.182;2024-02-04T09:42:53;101461.00;;;7.46;100.00
12969;BME280;6549;53.128;8.182;2024-02-04T09:45:54;101456.69;;;7.45;100.00
12969;BME280;6549;53.128;8.182;2024-02-04T09:48:55;101453.56;;;7.58;100.00
12969;BME280;6549;53.128;8.182;2024-02-04T09:51:59;101461.28;;;7.68;100.00
12969;BME280;6549;53.128;8.182;2024-02-04T09:55:02;101486.72;;;7.57;100.00
12969;BME280;6549;53.128;8.182;2024-02-04T09:58:06;101490.22;;;7.70;100.00
12969;BME280;6549;53.128;8.182;2024-02-04T10:01:06;101484.38;;;7.71;100.00
12969;BME280;6549;53.128;8.182;2024-02-04T10:04:09;101473.53;;;7.75;100.00
12969;BME280;6549;53.128;8.182;2024-02-04T10:07:10;101489.38;;;7.81;100.00
12969;BME280;6549;53.128;8.182;2024-02-04T10:10:11;101471.66;;;7.91;100.00
12969;BME280;6549;53.128;8.182;2024-02-04T10:13:12;101472.72;;;7.86;100.00
12969;BME280;6549;53.128;8.182;2024-02-04T10:16:13;101480.44;;;7.84;100.00
12969;BME280;6549;53.128;8.182;2024-02-04T10:19:14;101477.13;;;7.91;100.00
12969;BME280;6549;53.128;8.182;2024-02-04T10:22:14;101473.13;;;7.88;100.00
12969;BME280;6549;53.128;8.182;2024-02-04T10:25:20;101477.78;;;8.00;100.00
12969;BME280;6549;53.128;8.182;2024-02-04T10:28:21;101467.06;;;7.95;100.00
12969;BME280;6549;53.128;8.182;2024-02-04T10:31:21;101469.56;;;8.00;100.00
12969;BME280;6549;53.128;8.182;2024-02-04T10:34:22;101470.19;;;8.09;100.00
12969;BME280;6549;53.128;8.182;2024-02-04T10:37:22;101467.22;;;8.14;100.00
12969;BME280;6549;53.128;8.182;2024-02-04T10:40:23;101467.22;;;8.14;100.00
12969;BME280;6549;53.128;8.182;2024-02-04T10:43:28;101460.50;;;8.27;100.00
12969;BME280;6549;53.128;8.182;2024-02-04T10:46:31;101474.84;;;8.36;100.00
12969;BME280;6549;53.128;8.182;2024-02-04T10:49:37;101479.78;;;8.46;100.00
12969;BME280;6549;53.128;8.182;2024-02-04T10:52:39;101476.00;;;8.35;100.00
12969;BME280;6549;53.128;8.182;2024-02-04T10:55:41;101475.09;;;8.47;100.00
12969;BME280;6549;53.128;8.182;2024-02-04T10:58:43;101471.94;;;8.45;100.00
12969;BME280;6549;53.128;8.182;2024-02-04T11:01:45;101478.63;;;8.47;100.00
12969;BME280;6549;53.128;8.182;2024-02-04T11:04:49;101472.06;;;8.68;100.00
12969;BME280;6549;53.128;8.182;2024-02-04T11:07:50;101467.78;;;8.67;100.00
12969;BME280;6549;53.128;8.182;2024-02-04T11:10:51;101477.13;;;8.66;100.00
12969;BME280;6549;53.128;8.182;2024-02-04T11:13:55;101458.38;;;8.68;100.00
12969;BME280;6549;53.128;8.182;2024-02-04T11:17:12;101457.41;;;8.60;100.00
12969;BME280;6549;53.128;8.182;2024-02-04T11:23:43;101449.19;;;8.76;100.00
12969;BME280;6549;53.128;8.182;2024-02-04T11:26:49;101442.38;;;8.70;100.00
12969;BME280;6549;53.128;8.182;2024-02-04T11:29:49;101452.13;;;8.67;100.00
12969;BME280;6549;53.128;8.182;2024-02-04T11:32:49;101448.13;;;8.65;100.00
12969;BME280;6549;53.128;8.182;2024-02-04T11:36:04;101449.19;;;8.76;100.00
12969;BME280;6549;53.128;8.182;2024-02-04T11:39:14;101451.50;;;8.74;100.00
12969;BME280;6549;53.128;8.182;2024-02-04T11:42:17;101445.06;;;8.66;100.00
12969;BME280;6549;53.128;8.182;2024-02-04T11:45:18;101446.28;;;8.69;100.00
12969;BME280;6549;53.128;8.182;2024-02-04T11:48:18;101447.41;;;8.68;100.00
12969;BME280;6549;53.128;8.182;2024-02-04T11:51:24;101448.41;;;8.75;100.00
12969;BME280;6549;53.128;8.182;2024-02-04T11:54:25;101441.41;;;8.78;100.00
12969;BME280;6549;53.128;8.182;2024-02-04T11:57:26;101447.00;;;8.66;100.00
12969;BME280;6549;53.128;8.182;2024-02-04T12:00:26;101433.38;;;8.69;100.00
12969;BME280;6549;53.128;8.182;2024-02-04T12:03:31;101445.22;;;8.73;100.00
12969;BME280;6549;53.128;8.182;2024-02-04T12:06:31;101439.31;;;8.71;100.00
12969;BME280;6549;53.128;8.182;2024-02-04T12:09:32;101444.97;;;8.63;100.00
12969;BME280;6549;53.128;8.182;2024-02-04T12:12:32;101448.13;;;8.65;100.00
12969;BME280;6549;53.128;8.182;2024-02-04T12:15:36;101447.25;;;8.61;100.00
12969;BME280;6549;53.128;8.182;2024-02-04T12:18:50;101434.78;;;8.63;100.00
12969;BME280;6549;53.128;8.182;2024-02-04T12:21:50;101433.81;;;8.55;100.00
12969;BME280;6549;53.128;8.182;2024-02-04T12:24:51;101425.19;;;8.53;100.00
12969;BME280;6549;53.128;8.182;2024-02-04T12:27:51;101424.72;;;8.51;100.00
12969;BME280;6549;53.128;8.182;2024-02-04T12:30:55;101422.16;;;8.58;100.00
12969;BME280;6549;53.128;8.182;2024-02-04T12:33:56;101423.31;;;8.57;100.00
12969;BME280;6549;53.128;8.182;2024-02-04T12:37:00;101402.22;;;8.42;100.00
12969;BME280;6549;53.128;8.182;2024-02-04T12:40:01;101416.53;;;8.51;100.00
12969;BME280;6549;53.128;8.182;2024-02-04T12:43:03;101416.88;;;8.50;100.00
12969;BME280;6549;53.128;8.182;2024-02-04T12:46:04;101400.63;;;8.41;100.00
12969;BME280;6549;53.128;8.182;2024-02-04T12:49:05;101409.72;;;8.45;100.00
12969;BME280;6549;53.128;8.182;2024-02-04T12:52:07;101417.06;;;8.41;100.00
12969;BME280;6549;53.128;8.182;2024-02-04T12:55:07;101409.13;;;8.36;100.00
12969;BME280;6549;53.128;8.182;2024-02-04T12:58:11;101410.44;;;8.42;100.00
12969;BME280;6549;53.128;8.182;2024-02-04T13:01:14;101403.81;;;8.43;100.00
12969;BME280;6549;53.128;8.182;2024-02-04T13:04:14;101397.81;;;8.38;100.00
12969;BME280;6549;53.128;8.182;2024-02-04T13:07:15;101382.63;;;8.40;100.00
12969;BME280;6549;53.128;8.182;2024-02-04T13:10:18;101398.19;;;8.36;100.00
12969;BME280;6549;53.128;8.182;2024-02-04T13:13:18;101386.56;;;8.43;100.00
12969;BME280;6549;53.128;8.182;2024-02-04T13:16:20;101385.34;;;8.40;100.00
12969;BME280;6549;53.128;8.182;2024-02-04T13:19:22;101403.81;;;8.43;100.00
12969;BME280;6549;53.128;8.182;2024-02-04T13:22:22;101401.50;;;8.45;100.00
12969;BME280;6549;53.128;8.182;2024-02-04T13:25:23;101390.28;;;8.50;100.00
12969;BME280;6549;53.128;8.182;2024-02-04T13:28:23;101377.84;;;8.37;100.00
12969;BME280;6549;53.128;8.182;2024-02-04T13:31:24;101387.38;;;8.43;100.00
12969;BME280;6549;53.128;8.182;2024-02-04T13:34:24;101383.75;;;8.39;100.00
12969;BME280;6549;53.128;8.182;2024-02-04T13:37:25;101374.47;;;8.44;100.00
12969;BME280;6549;53.128;8.182;2024-02-04T13:40:25;101369.81;;;8.44;100.00
12969;BME280;6549;53.128;8.182;2024-02-04T13:43:25;101344.44;;;8.47;100.00
12969;BME280;6549;53.128;8.182;2024-02-04T13:46:26;101353.44;;;8.48;100.00
12969;BME280;6549;53.128;8.182;2024-02-04T13:49:27;101370.94;;;8.43;100.00
12969;BME280;6549;53.128;8.182;2024-02-04T13:52:27;101377.28;;;8.47;100.00
12969;BME280;6549;53.128;8.182;2024-02-04T13:55:27;101368.56;;;8.42;100.00
12969;BME280;6549;53.128;8.182;2024-02-04T13:58:28;101368.63;;;8.45;100.00
12969;BME280;6549;53.128;8.182;2024-02-04T14:01:28;101360.88;;;8.47;100.00
12969;BME280;6549;53.128;8.182;2024-02-04T14:04:29;101353.72;;;8.43;100.00
12969;BME280;6549;53.128;8.182;2024-02-04T14:07:30;101342.75;;;8.43;100.00
12969;BME280;6549;53.128;8.182;2024-02-04T14:10:30;101326.66;;;8.41;100.00
12969;BME280;6549;53.128;8.182;2024-02-04T14:13:30;101335.06;;;8.48;100.00
12969;BME280;6549;53.128;8.182;2024-02-04T14:16:32;101331.28;;;8.37;100.00
12969;BME280;6549;53.128;8.182;2024-02-04T14:19:33;101319.97;;;8.39;100.00
12969;BME280;6549;53.128;8.182;2024-02-04T14:22:34;101327.13;;;8.43;100.00
12969;BME280;6549;53.128;8.182;2024-02-04T14:25:34;101327.53;;;8.45;100.00
12969;BME280;6549;53.128;8.182;2024-02-04T14:28:34;101317.75;;;8.44;100.00
12969;BME280;6549;53.128;8.182;2024-02-04T14:31:41;101308.22;;;8.38;100.00
12969;BME280;6549;53.128;8.182;2024-02-04T14:34:41;101311.41;;;8.40;100.00
12969;BME280;6549;53.128;8.182;2024-02-04T14:37:42;101319.19;;;8.38;100.00
12969;BME280;6549;53.128;8.182;2024-02-04T14:40:42;101320.78;;;8.39;100.00
12969;BME280;6549;53.128;8.182;2024-02-04T14:43:43;101321.56;;;8.40;100.00
12969;BME280;6549;53.128;8.182;2024-02-04T14:46:43;101326.31;;;8.43;100.00
12969;BME280;6549;53.128;8.182;2024-02-04T14:49:45;101313.63;;;8.35;100.00
12969;BME280;6549;53.128;8.182;2024-02-04T14:52:46;101335.47;;;8.31;100.00
12969;BME280;6549;53.128;8.182;2024-02-04T14:55:47;101339.34;;;8.30;100.00
12969;BME280;6549;53.128;8.182;2024-02-04T14:58:47;101320.97;;;8.31;100.00
12969;BME280;6549;53.128;8.182;2024-02-04T15:01:47;101323.22;;;8.29;100.00
12969;BME280;6549;53.128;8.182;2024-02-04T15:04:48;101311.41;;;8.25;100.00
12969;BME280;6549;53.128;8.182;2024-02-04T15:07:49;101314.47;;;8.23;100.00
12969;BME280;6549;53.128;8.182;2024-02-04T15:10:51;101326.59;;;8.22;100.00
12969;BME280;6549;53.128;8.182;2024-02-04T15:13:52;101316.28;;;8.31;100.00
12969;BME280;6549;53.128;8.182;2024-02-04T15:16:53;101308.31;;;8.26;100.00
12969;BME280;6549;53.128;8.182;2024-02-04T15:19:54;101294.63;;;8.26;100.00
12969;BME280;6549;53.128;8.182;2024-02-04T15:22:55;101308.44;;;8.14;100.00
12969;BME280;6549;53.128;8.182;2024-02-04T15:25:56;101307.72;;;8.17;100.00
12969;BME280;6549;53.128;8.182;2024-02-04T15:28:59;101316.53;;;8.26;100.00
12969;BME280;6549;53.128;8.182;2024-02-04T15:31:59;101307.00;;;8.20;100.00
12969;BME280;6549;53.128;8.182;2024-02-04T15:35:00;101318.00;;;8.24;100.00
12969;BME280;6549;53.128;8.182;2024-02-04T15:38:00;101314.94;;;8.25;100.00
12969;BME280;6549;53.128;8.182;2024-02-04T15:41:01;101298.34;;;8.18;100.00
12969;BME280;6549;53.128;8.182;2024-02-04T15:44:01;101291.09;;;8.10;100.00
12969;BME280;6549;53.128;8.182;2024-02-04T15:47:04;101299.94;;;8.03;100.00
12969;BME280;6549;53.128;8.182;2024-02-04T15:50:06;101305.59;;;7.95;100.00
12969;BME280;6549;53.128;8.182;2024-02-04T15:53:07;101297.81;;;7.97;100.00
12969;BME280;6549;53.128;8.182;2024-02-04T15:56:07;101301.63;;;7.92;100.00
12969;BME280;6549;53.128;8.182;2024-02-04T15:59:12;101279.22;;;7.87;100.00
12969;BME280;6549;53.128;8.182;2024-02-04T16:02:12;101270.84;;;7.80;100.00